Time Latitude Longitude Accuracy (66% radius in meters) Altitude (meters) Speed (km/hour) Bearing (degrees) Battery (%) GPS flag
07:55:16 57.203832 60.118463 4.5509996414185 328 0 0 85 1 delete
07:55:05 57.203828 60.118457 13.65299987793 327 0 0 85 1 delete
07:54:53 57.203830 60.118454 15.170000076294 327 0 0 85 1 delete
07:54:41 57.203823 60.118462 13.65299987793 325 0 0 85 1 delete
07:54:29 57.203834 60.118480 13.65299987793 323 0.20999999344349 198.89999389648 85 1 delete
07:54:17 57.203837 60.118479 13.65299987793 321 0 0 85 1 delete
07:54:05 57.203841 60.118465 13.65299987793 321 0 0 85 1 delete
07:53:54 57.203852 60.118468 13.65299987793 321 0.47999998927116 134.80000305176 85 1 delete
07:53:50 57.203879 60.118421 16.687000274658 321 0.91000002622604 166.60000610352 85 1 delete
07:53:43 57.203910 60.118282 13.65299987793 322 0.74000000953674 166.69999694824 85 1 delete
07:53:42 57.203919 60.118271 15.170000076294 322 1.1599999666214 166.69999694824 85 1 delete
07:53:32 57.203980 60.118153 13.65299987793 321 0 0 85 1 delete
07:53:30 57.203988 60.118148 13.65299987793 321 0.18999999761581 127.80000305176 85 1 delete
07:53:23 57.204061 60.118028 13.65299987793 318 3.5499999523163 138.60000610352 85 1 delete
07:53:22 57.204101 60.117988 13.65299987793 317 3.6600000858307 137.89999389648 85 1 delete
07:53:20 57.204160 60.117921 13.65299987793 317 3.1700000762939 127.5 85 1 delete
07:53:17 57.204244 60.117827 15.170000076294 316 3.3699998855591 129.80000305176 85 1 delete
07:53:15 57.204374 60.117640 13.65299987793 313 3.25 139.19999694824 85 1 delete
07:53:11 57.204434 60.117559 13.65299987793 312 3.3900001049042 135.60000610352 85 1 delete
07:53:10 57.204441 60.117518 13.65299987793 311 3.5799999237061 160.10000610352 85 1 delete
07:53:07 57.204523 60.117428 15.170000076294 312 4.7600002288818 164.60000610352 85 1 delete
07:53:05 57.204619 60.117375 15.170000076294 312 3.6700000762939 171.39999389648 85 1 delete
07:53:02 57.204718 60.117312 15.170000076294 312 4.6599998474121 199 85 1 delete
07:52:59 57.204853 60.117439 13.65299987793 314 4.0100002288818 185 85 1 delete
07:52:56 57.204959 60.117475 13.65299987793 314 3.4200000762939 178.30000305176 85 1 delete
07:52:52 57.205054 60.117527 15.170000076294 313 3.5499999523163 197.39999389648 85 1 delete
07:52:49 57.205143 60.117623 13.65299987793 313 2.210000038147 207 85 1 delete
07:52:39 57.205175 60.117596 13.65299987793 311 1.3600000143051 79.400001525879 85 1 delete
07:52:38 57.205172 60.117558 13.65299987793 310 1.25 82.900001525879 85 1 delete
07:52:35 57.205174 60.117411 13.65299987793 308 1.710000038147 94.400001525879 85 1 delete
07:52:30 57.205166 60.117204 15.170000076294 309 2.2599999904633 86.400001525879 85 1 delete
07:52:27 57.205166 60.117098 13.65299987793 307 1.9400000572205 99.199996948242 85 1 delete
07:52:25 57.205181 60.117010 13.65299987793 306 2.5299999713898 111.59999847412 85 1 delete
07:52:21 57.205209 60.116809 15.170000076294 301 2.7000000476837 86.599998474121 85 1 delete
07:52:17 57.205231 60.116630 15.170000076294 305 2.0099999904633 92.199996948242 85 1 delete
07:52:16 57.205236 60.116585 15.170000076294 304 2.2200000286102 87.800003051758 85 1 delete
07:52:13 57.205247 60.116425 15.170000076294 304 2.1500000953674 90 85 1 delete
07:52:09 57.205255 60.116223 13.65299987793 302 2.289999961853 67.300003051758 85 1 delete
07:52:06 57.205242 60.116076 13.65299987793 301 1.9500000476837 76.400001525879 85 1 delete
07:52:05 57.205237 60.116028 13.65299987793 301 2.5199999809265 68.599998474121 85 1 delete
07:52:01 57.205207 60.115828 13.65299987793 301 2.8099999427795 94.5 85 1 delete
07:51:57 57.205236 60.115648 13.65299987793 301 1.8799999952316 125.09999847412 85 1 delete
07:51:55 57.205259 60.115564 13.65299987793 301 2.0099999904633 116.30000305176 85 1 delete
07:51:53 57.205277 60.115464 13.65299987793 301 1.5 102.90000152588 85 1 delete
07:51:48 57.205285 60.115281 13.65299987793 300 1.1900000572205 66.5 85 1 delete
07:51:44 57.205260 60.115148 13.65299987793 300 0.72000002861023 58.400001525879 85 1 delete
07:51:43 57.205256 60.115123 13.65299987793 300 2.2799999713898 53.900001525879 85 1 delete
07:51:39 57.205218 60.114972 13.65299987793 299 1.4199999570847 46.099998474121 85 1 delete
07:51:34 57.205192 60.114796 13.65299987793 299 2.1400001049042 64.300003051758 85 1 delete
07:51:33 57.205183 60.114758 13.65299987793 299 2.0799999237061 73 85 1 delete